Time;durP1;ratioP1;P1;durP2;ratioP2;P2;SDS_P1;SDS_P2;PMS_P1;PMS_P2;Temp;Humidity;BMP_temperature;BMP_pressure;BME280_temperature;BME280_humidity;BME280_pressure;Samples;Min_cycle;Max_cycle;Signal;HPM_P1;HPM_P2
2021/08/11 00:00:21;;;;;;;6.60;4.20;;;;;;;23.46;53.98;101218.47;5011269;28;20236;-66
2021/08/11 00:02:47;;;;;;;4.93;3.60;;;;;;;23.61;54.02;101242.50;5012795;28;20205;-66
2021/08/11 00:05:12;;;;;;;5.80;4.40;;;;;;;23.38;54.38;101204.03;5011944;28;20174;-66
2021/08/11 00:07:38;;;;;;;6.50;3.80;;;;;;;23.33;54.25;101195.56;5012405;28;20239;-66
2021/08/11 00:10:05;;;;;;;7.07;4.20;;;;;;;23.60;54.61;101238.09;5022926;28;20606;-66
2021/08/11 00:12:30;;;;;;;5.87;4.10;;;;;;;23.82;54.81;101266.50;5024958;28;20182;-66
2021/08/11 00:14:56;;;;;;;4.50;3.70;;;;;;;23.87;54.80;101281.94;5011692;28;20208;-66
2021/08/11 00:17:22;;;;;;;7.77;4.20;;;;;;;23.92;55.02;101267.88;5012518;28;20264;-65
2021/08/11 00:19:49;;;;;;;7.83;4.00;;;;;;;24.00;55.01;101282.31;4994517;28;20185;-66
2021/08/11 00:22:14;;;;;;;6.50;4.20;;;;;;;23.98;54.83;101268.66;5012362;28;20182;-66
2021/08/11 00:24:40;;;;;;;5.60;4.33;;;;;;;24.02;55.26;101282.56;5011879;28;20553;-66
2021/08/11 00:27:05;;;;;;;8.63;4.10;;;;;;;24.05;55.12;101281.56;5012060;28;20213;-66
2021/08/11 00:29:30;;;;;;;6.47;4.00;;;;;;;23.98;54.97;101285.63;5012311;28;20193;-66
2021/08/11 00:31:56;;;;;;;5.67;4.07;;;;;;;23.81;54.75;101287.59;5011666;28;20185;-66
2021/08/11 00:34:21;;;;;;;7.53;4.43;;;;;;;23.74;54.95;101293.72;5011632;28;20208;-66
2021/08/11 00:36:47;;;;;;;5.43;4.10;;;;;;;23.73;54.04;101286.53;5012145;28;20169;-66
2021/08/11 00:39:12;;;;;;;7.47;3.97;;;;;;;23.64;54.43;101275.41;4995279;28;20660;-66
2021/08/11 00:41:44;;;;;;;6.40;4.30;;;;;;;23.16;54.71;101201.09;5031470;28;20204;-66
2021/08/11 00:44:11;;;;;;;5.87;3.77;;;;;;;23.47;54.78;101249.09;5027565;28;20169;-66
2021/08/11 00:46:41;;;;;;;5.60;4.20;;;;;;;23.75;54.16;101283.19;5011542;28;20166;-66
2021/08/11 00:49:10;;;;;;;4.63;3.87;;;;;;;23.66;54.01;101269.25;5011812;28;20185;-66
2021/08/11 00:51:36;;;;;;;7.33;4.00;;;;;;;23.72;53.93;101285.00;5011340;28;20237;-66
2021/08/11 00:54:04;;;;;;;5.20;3.93;;;;;;;23.65;53.00;101276.19;5011650;28;20707;-66
2021/08/11 00:56:29;;;;;;;9.00;4.40;;;;;;;23.64;53.46;101277.50;5011226;28;20491;-66
2021/08/11 00:58:55;;;;;;;6.67;4.20;;;;;;;23.58;53.42;101274.63;5011790;28;20444;-65
2021/08/11 01:01:23;;;;;;;7.53;4.17;;;;;;;23.55;53.34;101277.69;5011111;28;20723;-66
2021/08/11 01:03:50;;;;;;;8.77;3.93;;;;;;;23.53;53.38;101274.56;5011360;28;20189;-65
2021/08/11 01:06:16;;;;;;;6.00;3.90;;;;;;;23.46;53.54;101275.84;5010921;28;20173;-65
2021/08/11 01:08:42;;;;;;;6.27;4.13;;;;;;;23.39;53.42;101279.13;5011622;28;20260;-65
2021/08/11 01:11:09;;;;;;;8.47;4.40;;;;;;;23.24;53.49;101264.38;5010918;28;20189;-66
2021/08/11 01:13:34;;;;;;;6.93;4.50;;;;;;;23.25;53.34;101270.81;5010990;28;20227;-66
2021/08/11 01:16:00;;;;;;;7.17;4.83;;;;;;;23.20;53.42;101285.69;5010797;28;20201;-66
2021/08/11 01:18:25;;;;;;;7.90;4.40;;;;;;;22.93;53.47;101244.59;5011591;28;20228;-65
2021/08/11 01:21:02;;;;;;;7.10;4.53;;;;;;;23.16;53.67;101283.06;5011264;28;20189;-66
2021/08/11 01:23:36;;;;;;;8.97;5.37;;;;;;;23.10;54.11;101287.13;5010811;28;20617;-66
2021/08/11 01:26:09;;;;;;;8.13;4.73;;;;;;;23.09;54.39;101297.66;5011031;28;20150;-65
2021/08/11 01:28:52;;;;;;;6.60;4.97;;;;;;;23.06;54.35;101298.69;5011307;28;20197;-66
2021/08/11 01:31:19;;;;;;;6.73;5.07;;;;;;;22.90;54.39;101279.53;5010932;28;20189;-66
2021/08/11 01:34:07;;;;;;;9.87;5.27;;;;;;;23.05;54.28;101291.47;5010524;28;20232;-66
2021/08/11 01:36:52;;;;;;;6.47;4.90;;;;;;;22.98;54.60;101286.28;5010737;28;20202;-66
2021/08/11 01:39:35;;;;;;;9.37;5.13;;;;;;;22.94;54.60;101284.97;5010803;28;20475;-66
2021/08/11 01:42:12;;;;;;;7.83;5.07;;;;;;;22.90;54.80;101281.59;5011060;28;20561;-65
2021/08/11 01:44:46;;;;;;;8.53;5.33;;;;;;;22.32;54.59;101200.91;5010310;28;20261;-66
2021/08/11 01:47:14;;;;;;;7.70;4.73;;;;;;;22.83;54.88;101276.38;5010532;28;20600;-66
2021/08/11 01:49:43;;;;;;;8.40;4.90;;;;;;;22.77;55.01;101279.16;5011167;28;20220;-65
2021/08/11 01:52:09;;;;;;;6.77;4.43;;;;;;;22.72;55.18;101288.38;5010674;28;20181;-66
2021/08/11 01:54:36;;;;;;;6.67;4.80;;;;;;;22.03;55.12;101174.97;5010362;28;20177;-65
2021/08/11 01:57:03;;;;;;;9.97;4.60;;;;;;;22.70;55.26;101273.97;4992889;28;20189;-66
2021/08/11 01:59:29;;;;;;;6.80;4.60;;;;;;;22.28;55.17;101214.50;5010638;28;20189;-66
2021/08/11 02:01:54;;;;;;;10.33;4.50;;;;;;;22.61;55.14;101279.78;5009709;28;20173;-66
2021/08/11 02:04:20;;;;;;;9.03;5.10;;;;;;;22.46;55.61;101281.94;5010136;28;20181;-66
2021/08/11 02:06:48;;;;;;;12.90;5.13;;;;;;;22.07;56.25;101268.66;5010576;28;20719;-65
2021/08/11 02:09:16;;;;;;;9.90;5.00;;;;;;;21.71;57.48;101275.69;5014073;28;20165;-66
2021/08/11 02:11:41;;;;;;;8.03;4.93;;;;;;;22.02;57.25;101280.66;5030340;28;20177;-66
2021/08/11 02:14:09;;;;;;;19.73;6.23;;;;;;;22.11;56.82;101270.00;5029645;28;20184;-66
2021/08/11 02:16:35;;;;;;;11.47;5.00;;;;;;;22.18;56.75;101269.56;5014879;28;20255;-66
2021/08/11 02:19:01;;;;;;;8.70;4.57;;;;;;;22.19;56.52;101276.78;5010211;28;20659;-66
2021/08/11 02:21:26;;;;;;;8.13;5.03;;;;;;;22.10;57.01;101282.56;5010521;28;20185;-66
2021/08/11 02:23:52;;;;;;;10.77;5.03;;;;;;;21.92;57.42;101290.56;5011754;28;20578;-66
2021/08/11 02:26:31;;;;;;;9.63;5.43;;;;;;;21.88;57.96;101290.78;5014591;28;20648;-65
2021/08/11 02:29:27;;;;;;;11.07;6.03;;;;;;;22.01;57.50;101291.19;5014086;28;20196;-65
2021/08/11 02:31:58;;;;;;;17.93;6.27;;;;;;;22.01;57.18;101282.72;5000205;28;20201;-66
2021/08/11 02:35:01;;;;;;;8.33;5.13;;;;;;;21.98;56.87;101280.09;5013833;28;20178;-66
2021/08/11 02:37:37;;;;;;;9.80;5.60;;;;;;;21.92;56.89;101282.09;5014416;28;20189;-66
2021/08/11 02:40:08;;;;;;;12.17;5.53;;;;;;;21.83;57.26;101283.00;5013915;28;20177;-65
2021/08/11 02:42:40;;;;;;;8.77;5.93;;;;;;;21.12;57.63;101180.50;5014309;28;20169;-66
2021/08/11 02:45:11;;;;;;;9.67;5.77;;;;;;;21.73;57.82;101286.44;5013182;28;20178;-65
2021/08/11 02:47:38;;;;;;;13.93;5.73;;;;;;;21.66;57.21;101236.09;5014254;28;20170;-67
2021/08/11 02:50:06;;;;;;;9.10;5.57;;;;;;;21.90;57.56;101276.19;5013844;28;20704;-65
2021/08/11 02:52:32;;;;;;;7.97;5.70;;;;;;;21.90;58.01;101288.22;5013975;28;20212;-66
2021/08/11 02:54:59;;;;;;;12.30;6.00;;;;;;;21.43;58.03;101214.50;5013427;28;20275;-66
2021/08/11 02:57:25;;;;;;;9.60;6.00;;;;;;;21.95;58.08;101295.97;5013737;28;20177;-65
2021/08/11 02:59:52;;;;;;;9.10;5.87;;;;;;;21.96;57.90;101300.34;5013675;28;20664;-65
2021/08/11 03:02:18;;;;;;;8.90;5.60;;;;;;;21.96;57.58;101294.69;5013897;28;20180;-65
2021/08/11 03:04:43;;;;;;;9.27;5.20;;;;;;;22.05;57.08;101305.84;5013643;28;20178;-65
2021/08/11 03:07:09;;;;;;;10.03;6.00;;;;;;;22.04;57.61;101314.81;5013146;28;20221;-65
2021/08/11 03:09:36;;;;;;;8.97;5.30;;;;;;;21.93;57.75;101321.09;5020232;28;20682;-66
2021/08/11 03:12:05;;;;;;;12.10;6.20;;;;;;;22.00;57.33;101323.50;5033370;28;20201;-66
2021/08/11 03:14:31;;;;;;;10.40;6.20;;;;;;;21.77;57.34;101278.56;5015600;28;20616;-65
2021/08/11 03:16:57;;;;;;;9.20;5.90;;;;;;;22.08;57.41;101321.03;5014163;28;20185;-66
2021/08/11 03:19:22;;;;;;;11.53;6.40;;;;;;;22.08;57.59;101316.16;5013533;28;20552;-65
2021/08/11 03:21:48;;;;;;;7.53;6.00;;;;;;;21.43;57.48;101248.31;5013154;28;20182;-66
2021/08/11 03:24:13;;;;;;;8.93;5.40;;;;;;;21.80;57.65;101326.31;5013268;28;20182;-65
2021/08/11 03:26:39;;;;;;;8.03;5.23;;;;;;;21.85;57.41;101334.06;5013271;28;20170;-66
2021/08/11 03:29:04;;;;;;;8.37;5.77;;;;;;;21.70;57.75;101313.59;5013295;28;20569;-65
2021/08/11 03:31:31;;;;;;;9.57;5.63;;;;;;;21.81;58.02;101339.16;5012849;28;20174;-65
2021/08/11 03:33:57;;;;;;;9.97;5.83;;;;;;;21.35;58.18;101278.97;5013123;28;20248;-66
2021/08/11 03:36:23;;;;;;;9.67;5.67;;;;;;;21.80;57.84;101345.31;5011678;28;20217;-66
2021/08/11 03:38:48;;;;;;;12.17;5.73;;;;;;;21.63;58.25;101347.84;5013160;28;20180;-65
2021/08/11 03:41:14;;;;;;;10.57;5.80;;;;;;;21.62;58.66;101353.97;5012778;28;20189;-65
2021/08/11 03:43:39;;;;;;;9.50;5.90;;;;;;;21.67;58.47;101358.91;5013132;28;20177;-66
2021/08/11 03:46:05;;;;;;;10.20;6.13;;;;;;;21.68;58.37;101349.19;5012621;28;20181;-66
2021/08/11 03:48:30;;;;;;;9.90;6.10;;;;;;;21.79;58.31;101355.00;5012803;28;20178;-65
2021/08/11 03:50:56;;;;;;;15.33;6.07;;;;;;;21.86;58.07;101358.19;5012724;28;20209;-66
2021/08/11 03:53:21;;;;;;;11.20;5.33;;;;;;;21.89;57.95;101365.69;5012593;28;20182;-65
2021/08/11 03:55:47;;;;;;;13.47;6.20;;;;;;;21.92;58.01;101363.94;5012849;28;20256;-66
2021/08/11 03:58:12;;;;;;;10.03;5.43;;;;;;;21.94;57.56;101375.47;5012488;28;20177;-66
2021/08/11 04:00:37;;;;;;;9.83;5.57;;;;;;;21.33;57.36;101289.22;5012858;28;20177;-66
2021/08/11 04:03:03;;;;;;;7.70;4.90;;;;;;;21.87;57.51;101370.28;5012260;28;20180;-65
2021/08/11 04:05:29;;;;;;;10.30;5.70;;;;;;;21.81;57.82;101369.41;5012777;28;20174;-66
2021/08/11 04:07:54;;;;;;;11.43;5.73;;;;;;;21.75;57.90;101372.16;4994456;28;20229;-66
2021/08/11 04:10:20;;;;;;;15.67;5.93;;;;;;;21.83;58.18;101378.94;5025687;28;20176;-65
2021/08/11 04:12:45;;;;;;;18.30;8.33;;;;;;;21.87;58.02;101381.56;5032098;28;20546;-66
2021/08/11 04:15:11;;;;;;;12.23;5.80;;;;;;;21.86;58.12;101377.19;5027726;28;20240;-65
2021/08/11 04:17:36;;;;;;;10.33;6.10;;;;;;;21.91;58.29;101374.44;5012287;28;20181;-65
2021/08/11 04:20:04;;;;;;;14.00;6.77;;;;;;;21.99;57.82;101380.44;5012307;28;20213;-66
2021/08/11 04:22:29;;;;;;;24.83;8.43;;;;;;;21.71;57.85;101334.13;5012050;28;20205;-66
2021/08/11 04:24:55;;;;;;;28.90;9.63;;;;;;;22.12;57.87;101389.34;5012256;28;20284;-66
2021/08/11 04:27:20;;;;;;;21.53;8.70;;;;;;;22.13;57.89;101388.06;5012163;28;20182;-65
2021/08/11 04:29:46;;;;;;;18.53;8.17;;;;;;;22.17;57.86;101385.81;5011857;28;20284;-66
2021/08/11 04:32:11;;;;;;;12.03;6.20;;;;;;;22.05;57.62;101358.72;5011470;28;20182;-68
2021/08/11 04:34:37;;;;;;;12.77;6.87;;;;;;;22.31;57.53;101399.09;5011633;28;20181;-67
2021/08/11 04:37:03;;;;;;;17.33;6.67;;;;;;;22.39;57.30;101386.88;5008708;28;20251;-67
2021/08/11 04:39:28;;;;;;;12.73;6.97;;;;;;;22.17;57.25;101355.56;5011664;28;20687;-67
2021/08/11 04:41:54;;;;;;;11.87;6.17;;;;;;;22.50;57.17;101387.03;5011972;28;20185;-67
2021/08/11 04:44:19;;;;;;;12.17;6.90;;;;;;;22.57;56.96;101392.22;5011105;28;20182;-67
2021/08/11 04:46:45;;;;;;;16.63;7.23;;;;;;;22.08;56.79;101306.91;5028984;28;20655;-67
2021/08/11 04:49:10;;;;;;;16.00;6.97;;;;;;;22.69;56.96;101385.44;5010836;28;20538;-67
2021/08/11 04:51:36;;;;;;;13.20;7.07;;;;;;;22.62;56.84;101376.63;5011375;28;20718;-67
2021/08/11 04:54:01;;;;;;;12.03;7.03;;;;;;;22.82;56.78;101399.94;5011269;28;20675;-67
2021/08/11 04:56:27;;;;;;;14.60;7.70;;;;;;;22.74;56.75;101401.69;5003553;28;20210;-67
2021/08/11 04:58:53;;;;;;;11.07;7.13;;;;;;;22.30;57.15;101349.50;5009443;28;20264;-68
2021/08/11 05:01:18;;;;;;;12.00;7.27;;;;;;;22.84;57.07;101402.28;5010486;28;20224;-67
2021/08/11 05:03:44;;;;;;;11.83;6.70;;;;;;;22.68;57.15;101366.91;5010105;28;20181;-67
2021/08/11 05:06:09;;;;;;;11.87;6.57;;;;;;;23.06;57.02;101410.97;5010721;28;20173;-66
2021/08/11 05:08:38;;;;;;;15.07;7.13;;;;;;;22.41;56.47;101296.75;4993429;28;20674;-68
2021/08/11 05:11:05;;;;;;;14.43;7.20;;;;;;;23.25;56.39;101410.19;5008866;28;20210;-68
2021/08/11 05:13:31;;;;;;;15.57;7.47;;;;;;;23.34;55.96;101417.69;5008953;28;20185;-68
2021/08/11 05:15:57;;;;;;;13.90;6.93;;;;;;;23.44;56.25;101408.50;4999448;28;20210;-69
2021/08/11 05:18:23;;;;;;;16.83;8.13;;;;;;;23.54;55.91;101414.78;4988679;28;20190;-69
2021/08/11 05:20:49;;;;;;;15.00;7.70;;;;;;;23.64;56.09;101408.41;4971888;28;20190;-68
2021/08/11 05:23:15;;;;;;;13.70;7.80;;;;;;;23.65;56.06;101397.88;4979441;28;20198;-68
2021/08/11 05:25:43;;;;;;;19.73;8.10;;;;;;;23.66;56.08;101391.72;4998185;28;20192;-68
2021/08/11 05:28:09;;;;;;;16.80;7.97;;;;;;;23.90;56.17;101419.69;5000063;28;20557;-68
2021/08/11 05:30:39;;;;;;;16.13;8.37;;;;;;;24.02;55.93;101424.13;5010294;28;20231;-68
2021/08/11 05:33:05;;;;;;;16.50;8.73;;;;;;;24.11;55.89;101419.03;4997102;28;20656;-68
2021/08/11 05:35:30;;;;;;;16.73;8.90;;;;;;;24.25;55.23;101422.97;4990634;28;20294;-68
2021/08/11 05:37:56;;;;;;;23.13;9.53;;;;;;;24.24;55.04;101422.19;4990089;28;20502;-68
2021/08/11 05:40:22;;;;;;;12.80;8.77;;;;;;;24.34;55.37;101415.03;4994076;28;20182;-68
2021/08/11 05:42:47;;;;;;;16.60;8.40;;;;;;;24.41;55.19;101425.84;5010550;28;20198;-68
2021/08/11 05:45:12;;;;;;;13.97;9.10;;;;;;;24.41;54.80;101410.94;5001496;28;20182;-68
2021/08/11 05:47:39;;;;;;;16.63;8.97;;;;;;;24.52;54.62;101422.31;4989512;28;20280;-68
2021/08/11 05:50:05;;;;;;;17.23;9.30;;;;;;;24.65;54.74;101409.25;4990197;28;20649;-67
2021/08/11 05:52:31;;;;;;;16.77;9.00;;;;;;;24.72;54.26;101411.56;5000073;28;20216;-68
2021/08/11 05:54:56;;;;;;;15.10;9.10;;;;;;;24.78;53.79;101417.25;5009888;28;20214;-68
2021/08/11 05:57:21;;;;;;;12.40;9.07;;;;;;;24.95;53.16;101421.69;4992739;28;20221;-68
2021/08/11 05:59:48;;;;;;;13.10;8.60;;;;;;;25.03;52.45;101419.88;4989624;28;20249;-68
2021/08/11 06:02:14;;;;;;;15.10;9.10;;;;;;;25.15;53.30;101423.50;4990557;28;20178;-68
2021/08/11 06:04:39;;;;;;;12.87;8.80;;;;;;;25.25;53.70;101439.00;4995988;28;20201;-68
2021/08/11 06:07:05;;;;;;;15.13;8.47;;;;;;;25.41;53.15;101430.53;4997597;28;20237;-68
2021/08/11 06:09:30;;;;;;;14.70;8.37;;;;;;;25.51;52.61;101420.47;5000836;28;20197;-68
2021/08/11 06:11:56;;;;;;;14.37;8.40;;;;;;;25.57;52.34;101423.28;5009858;28;20193;-68
2021/08/11 06:14:22;;;;;;;14.67;9.10;;;;;;;25.60;51.91;101434.41;5010019;28;20254;-68
2021/08/11 06:16:47;;;;;;;12.77;7.63;;;;;;;25.69;52.39;101425.59;5003383;28;20210;-68
2021/08/11 06:19:12;;;;;;;12.03;8.27;;;;;;;25.81;52.17;101426.34;5009492;28;20178;-68
2021/08/11 06:21:38;;;;;;;14.27;8.37;;;;;;;25.83;52.44;101423.75;5009459;28;20248;-68
2021/08/11 06:24:04;;;;;;;12.30;8.43;;;;;;;25.80;52.41;101430.50;5009384;28;20177;-68
2021/08/11 06:26:29;;;;;;;17.23;8.33;;;;;;;25.36;52.56;101354.69;5009656;28;20176;-68
2021/08/11 06:28:55;;;;;;;13.47;9.70;;;;;;;25.88;53.06;101434.34;5000458;28;20240;-68
2021/08/11 06:31:24;;;;;;;12.30;8.57;;;;;;;25.82;53.49;101436.41;5005873;28;20596;-68
2021/08/11 06:33:51;;;;;;;13.10;9.03;;;;;;;26.02;53.55;101436.16;4983860;28;20195;-68
2021/08/11 06:36:16;;;;;;;14.27;9.30;;;;;;;25.92;53.85;101423.53;4989918;28;20784;-68
2021/08/11 06:38:43;;;;;;;12.33;9.00;;;;;;;25.95;54.27;101426.09;5009043;28;20178;-68
2021/08/11 06:41:08;;;;;;;14.17;9.10;;;;;;;26.01;54.33;101438.25;5001769;28;20209;-68
2021/08/11 06:43:34;;;;;;;14.00;8.87;;;;;;;26.18;53.75;101433.28;5008578;28;20240;-68
2021/08/11 06:45:59;;;;;;;11.83;9.13;;;;;;;26.20;53.22;101407.19;5002226;28;20181;-68
2021/08/11 06:48:25;;;;;;;11.83;9.53;;;;;;;26.53;53.24;101436.25;5008167;28;20190;-68
2021/08/11 06:50:50;;;;;;;11.90;9.10;;;;;;;26.61;52.61;101430.81;4992060;28;20186;-68
2021/08/11 06:53:16;;;;;;;10.53;9.30;;;;;;;26.72;52.72;101437.19;4983565;28;20186;-68
2021/08/11 06:55:41;;;;;;;11.00;9.37;;;;;;;26.74;52.58;101439.53;4972872;28;20265;-68
2021/08/11 06:58:06;;;;;;;12.23;9.67;;;;;;;26.60;52.82;101441.41;5000574;28;20189;-68
2021/08/11 07:00:32;;;;;;;14.97;9.37;;;;;;;26.65;52.94;101445.50;5003922;28;20257;-68
2021/08/11 07:02:57;;;;;;;10.37;9.37;;;;;;;26.58;53.25;101446.06;4989114;28;20265;-68
2021/08/11 07:05:23;;;;;;;12.03;9.40;;;;;;;26.69;53.08;101443.16;5000625;28;20260;-68
2021/08/11 07:07:48;;;;;;;11.43;9.77;;;;;;;26.67;52.36;101440.09;5019844;28;20236;-68
2021/08/11 07:10:16;;;;;;;12.50;9.00;;;;;;;26.88;52.06;101444.88;5009603;28;20770;-68
2021/08/11 07:12:42;;;;;;;14.23;9.80;;;;;;;26.53;52.36;101395.66;5019641;28;20193;-68
2021/08/11 07:15:09;;;;;;;12.53;9.13;;;;;;;26.50;52.44;101376.81;5030507;28;20225;-68
2021/08/11 07:17:35;;;;;;;10.53;9.20;;;;;;;26.65;52.61;101389.44;5011706;28;20193;-68
2021/08/11 07:20:03;;;;;;;13.53;8.63;;;;;;;26.51;52.00;101350.69;5013140;28;20722;-68
2021/08/11 07:22:29;;;;;;;14.77;9.03;;;;;;;27.29;51.64;101437.13;5013872;28;20212;-68
2021/08/11 07:24:54;;;;;;;10.47;7.93;;;;;;;27.22;52.11;101445.47;5021924;28;20522;-68
2021/08/11 07:27:20;;;;;;;12.03;8.77;;;;;;;27.07;51.92;101427.94;5011218;28;20197;-68
2021/08/11 07:29:45;;;;;;;16.93;9.20;;;;;;;27.34;51.48;101446.91;5011266;28;20194;-68
2021/08/11 07:32:11;;;;;;;10.93;8.87;;;;;;;27.50;51.36;101449.63;5014521;28;20181;-68
2021/08/11 07:34:36;;;;;;;12.33;8.70;;;;;;;27.52;51.07;101421.41;5029164;28;20582;-68
2021/08/11 07:37:02;;;;;;;10.45;8.32;;;;;;;27.84;50.74;101450.88;5020829;28;20708;-68
2021/08/11 07:39:27;;;;;;;12.52;8.55;;;;;;;27.82;50.60;101444.97;5017649;28;20207;-68
2021/08/11 07:41:53;;;;;;;14.13;9.30;;;;;;;27.95;49.83;101452.88;5012860;28;20178;-68
2021/08/11 07:44:18;;;;;;;15.13;9.07;;;;;;;27.92;49.68;101440.47;5015243;28;20189;-68
2021/08/11 07:46:44;;;;;;;12.10;8.63;;;;;;;27.89;50.08;101446.47;5011741;28;20189;-68
2021/08/11 07:49:10;;;;;;;11.20;8.88;;;;;;;27.83;50.07;101443.66;5021166;28;20181;-68
2021/08/11 07:51:36;;;;;;;17.77;9.85;;;;;;;27.96;49.70;101440.94;5030973;28;20643;-68
2021/08/11 07:54:01;;;;;;;11.18;9.23;;;;;;;28.29;49.21;101432.00;5012714;28;20189;-68
2021/08/11 07:56:27;;;;;;;14.32;9.57;;;;;;;28.41;48.81;101430.59;5015244;28;20213;-68
2021/08/11 07:58:52;;;;;;;12.55;9.27;;;;;;;27.74;48.44;101301.56;5030757;28;20296;-68
2021/08/11 08:01:18;;;;;;;15.18;8.85;;;;;;;28.82;48.51;101431.06;5018981;28;20189;-68
2021/08/11 08:03:43;;;;;;;13.02;9.10;;;;;;;28.70;48.08;101409.72;5019106;28;20208;-68
2021/08/11 08:06:09;;;;;;;14.43;9.65;;;;;;;28.61;48.19;101360.88;5011726;28;20181;-68
2021/08/11 08:08:34;;;;;;;14.43;9.25;;;;;;;29.20;47.68;101426.13;5015390;28;20304;-68
2021/08/11 08:11:00;;;;;;;12.35;8.82;;;;;;;29.39;47.30;101424.00;5011617;28;20189;-68
2021/08/11 08:13:26;;;;;;;14.52;9.20;;;;;;;29.43;47.04;101430.94;5011142;28;20613;-68
2021/08/11 08:15:52;;;;;;;12.15;8.77;;;;;;;29.48;46.75;101412.94;5010296;28;20246;-68
2021/08/11 08:18:21;;;;;;;12.10;8.75;;;;;;;29.81;46.79;101432.38;5010556;28;20193;-68
2021/08/11 08:20:55;;;;;;;43.50;10.80;;;;;;;29.99;46.35;101425.03;5011708;28;20259;-68
2021/08/11 08:23:21;;;;;;;10.63;8.75;;;;;;;30.17;46.25;101427.81;5010531;28;20224;-68
2021/08/11 08:25:47;;;;;;;13.68;8.85;;;;;;;30.26;45.26;101415.16;5025087;28;20185;-68
2021/08/11 08:28:13;;;;;;;18.33;9.07;;;;;;;30.36;44.78;101410.53;5028395;28;20581;-68
2021/08/11 08:30:40;;;;;;;16.92;8.75;;;;;;;30.29;44.98;101383.38;5010180;28;20660;-69
2021/08/11 08:33:05;;;;;;;13.13;8.68;;;;;;;30.64;45.16;101410.69;5018934;28;20185;-68
2021/08/11 08:35:31;;;;;;;10.95;8.85;;;;;;;30.46;44.70;101414.47;5030373;28;20219;-68
2021/08/11 08:37:57;;;;;;;11.57;8.27;;;;;;;30.61;44.70;101401.13;5015074;28;20193;-67
2021/08/11 08:40:32;;;;;;;11.35;8.23;;;;;;;30.60;44.50;101398.84;5020664;28;20201;-66
2021/08/11 08:42:57;;;;;;;12.60;8.30;;;;;;;29.74;45.28;101289.41;5010522;28;20169;-68
2021/08/11 08:45:23;;;;;;;11.65;8.18;;;;;;;30.30;44.93;101398.44;5012477;28;20782;-67
2021/08/11 08:47:49;;;;;;;11.75;8.20;;;;;;;30.44;44.84;101394.22;5010628;28;20182;-69
2021/08/11 08:50:16;;;;;;;8.85;7.95;;;;;;;30.71;44.79;101393.66;5009779;28;20188;-69
2021/08/11 08:52:44;;;;;;;12.45;8.23;;;;;;;30.91;45.09;101387.19;5014346;28;20565;-69
2021/08/11 08:55:10;;;;;;;11.10;8.48;;;;;;;30.82;44.49;101349.72;5029192;28;20236;-69
2021/08/11 08:57:35;;;;;;;12.95;8.80;;;;;;;31.21;44.21;101378.16;5014520;28;20224;-68
2021/08/11 09:00:04;;;;;;;11.50;8.07;;;;;;;31.45;43.72;101386.41;5009821;28;20612;-69
2021/08/11 09:02:30;;;;;;;13.38;8.07;;;;;;;31.51;43.30;101390.66;5009804;28;20182;-69
2021/08/11 09:04:55;;;;;;;9.55;8.48;;;;;;;31.21;43.49;101378.16;5009829;28;20181;-67
2021/08/11 09:07:21;;;;;;;12.73;8.07;;;;;;;31.35;43.09;101377.56;5009146;28;20324;-68
2021/08/11 09:09:46;;;;;;;11.80;7.97;;;;;;;31.55;42.51;101376.78;5005308;28;20181;-68
2021/08/11 09:12:17;;;;;;;8.52;7.50;;;;;;;31.74;42.02;101374.44;4991106;28;20572;-69
2021/08/11 09:14:47;;;;;;;11.18;7.53;;;;;;;31.96;41.55;101373.06;5009660;28;20188;-68
2021/08/11 09:17:32;;;;;;;10.05;7.43;;;;;;;32.03;41.11;101373.09;4997657;28;20189;-68
2021/08/11 09:19:58;;;;;;;11.05;7.47;;;;;;;32.15;40.48;101359.22;5006605;28;20189;-68
2021/08/11 09:22:23;;;;;;;10.27;7.57;;;;;;;32.12;40.71;101343.91;5006703;28;20644;-68
2021/08/11 09:25:06;;;;;;;11.93;8.10;;;;;;;32.45;41.14;101365.13;5009350;28;20186;-68
2021/08/11 09:27:39;;;;;;;11.15;7.50;;;;;;;32.49;39.88;101360.53;5002270;28;20178;-68
2021/08/11 09:30:10;;;;;;;11.77;6.85;;;;;;;32.47;40.23;101360.34;5004112;28;20261;-68
2021/08/11 09:32:49;;;;;;;10.93;7.57;;;;;;;31.94;40.46;101338.47;5003799;28;20193;-68
2021/08/11 09:35:17;;;;;;;8.80;7.38;;;;;;;31.94;40.50;101353.56;5000350;28;20198;-68
2021/08/11 09:37:44;;;;;;;11.30;7.55;;;;;;;32.20;40.43;101359.03;5001467;28;20209;-68
2021/08/11 09:40:26;;;;;;;8.45;7.32;;;;;;;32.21;39.81;101363.47;4997408;28;20217;-68
2021/08/11 09:42:58;;;;;;;8.60;6.10;;;;;;;32.23;39.76;101362.88;4989083;28;20162;-68
2021/08/11 09:45:23;;;;;;;9.50;6.57;;;;;;;32.07;40.38;101353.44;4983969;28;20612;-68
2021/08/11 09:48:00;;;;;;;10.05;6.32;;;;;;;32.10;40.03;101357.28;4989264;28;20171;-68
2021/08/11 09:50:35;;;;;;;8.98;7.03;;;;;;;31.76;40.46;101303.00;4989276;28;20224;-68
2021/08/11 09:53:01;;;;;;;8.30;6.45;;;;;;;32.24;40.37;101350.84;4975503;28;20213;-68
2021/08/11 09:55:27;;;;;;;12.45;6.30;;;;;;;32.15;40.04;101351.38;4971060;28;20292;-68
2021/08/11 09:57:52;;;;;;;11.15;6.22;;;;;;;32.10;39.97;101349.44;5001413;28;20182;-67
2021/08/11 10:00:18;;;;;;;8.65;6.10;;;;;;;32.10;39.75;101345.81;5008749;28;20686;-68
2021/08/11 10:02:45;;;;;;;8.82;5.90;;;;;;;31.72;39.82;101293.19;5007920;28;20658;-68
2021/08/11 10:05:33;;;;;;;9.20;5.82;;;;;;;32.12;39.79;101351.72;4995095;28;20679;-68
2021/08/11 10:07:59;;;;;;;8.50;6.07;;;;;;;32.16;40.02;101340.69;5005919;28;20336;-68
2021/08/11 10:10:25;;;;;;;9.68;6.43;;;;;;;32.23;39.44;101342.81;5004395;28;20663;-67
2021/08/11 10:12:52;;;;;;;11.07;6.55;;;;;;;32.36;39.89;101336.97;5007105;28;20699;-68
2021/08/11 10:15:20;;;;;;;10.10;6.20;;;;;;;32.53;39.37;101325.75;5001249;28;20220;-68
2021/08/11 10:17:49;;;;;;;8.00;5.57;;;;;;;32.49;38.70;101296.63;4998180;28;20201;-68
2021/08/11 10:20:18;;;;;;;10.13;5.82;;;;;;;32.73;38.75;101325.63;5003200;28;20265;-68
2021/08/11 10:22:45;;;;;;;7.57;6.10;;;;;;;33.05;37.80;101323.00;5006215;28;20610;-68
2021/08/11 10:25:11;;;;;;;10.32;6.38;;;;;;;32.46;37.82;101240.41;5007201;28;20238;-68
2021/08/11 10:27:41;;;;;;;8.48;5.93;;;;;;;33.17;38.09;101326.28;5000597;28;20194;-67
2021/08/11 10:30:08;;;;;;;10.32;6.05;;;;;;;33.19;37.81;101321.47;5001760;28;20570;-68
2021/08/11 10:32:35;;;;;;;11.15;6.47;;;;;;;32.89;37.47;101228.81;5000842;28;20206;-68
2021/08/11 10:35:02;;;;;;;9.80;6.40;;;;;;;33.30;37.19;101275.16;5008636;28;20556;-68
2021/08/11 10:37:28;;;;;;;11.55;6.15;;;;;;;33.58;37.58;101300.78;5008363;28;20721;-68
2021/08/11 10:39:54;;;;;;;8.15;6.20;;;;;;;33.68;37.07;101303.84;5008343;28;20714;-68
2021/08/11 10:42:19;;;;;;;9.82;5.68;;;;;;;33.74;36.44;101305.13;5007927;28;20213;-68
2021/08/11 10:44:46;;;;;;;12.63;5.93;;;;;;;33.55;36.59;101301.94;5003413;28;20170;-68
2021/08/11 10:47:13;;;;;;;11.20;6.18;;;;;;;33.71;37.08;101302.66;5011470;28;20594;-68
2021/08/11 10:49:55;;;;;;;7.22;5.68;;;;;;;33.79;36.48;101297.69;5012413;28;20228;-68
2021/08/11 10:52:21;;;;;;;7.32;5.65;;;;;;;33.82;36.29;101299.41;4998288;28;20268;-68
2021/08/11 10:54:53;;;;;;;10.73;6.35;;;;;;;33.86;36.29;101294.03;5009590;28;20182;-68
2021/08/11 10:57:33;;;;;;;11.90;6.00;;;;;;;34.28;35.51;101298.69;5003805;28;20655;-68
2021/08/11 11:00:00;;;;;;;9.57;6.03;;;;;;;34.54;35.36;101283.78;5012043;28;20271;-68
2021/08/11 11:02:44;;;;;;;9.82;6.35;;;;;;;34.99;34.51;101288.47;5011725;28;20273;-68
2021/08/11 11:05:22;;;;;;;7.95;5.65;;;;;;;35.13;34.75;101290.47;4996069;28;20605;-68
2021/08/11 11:08:14;;;;;;;12.27;5.97;;;;;;;35.45;34.53;101283.84;5004370;28;20364;-69
2021/08/11 11:10:44;;;;;;;9.07;5.57;;;;;;;35.73;34.11;101281.28;4985041;28;20205;-68
2021/08/11 11:13:36;;;;;;;9.52;5.80;;;;;;;35.91;33.04;101282.81;5007873;28;20186;-68
2021/08/11 11:16:02;;;;;;;7.05;5.53;;;;;;;35.93;32.26;101282.22;4988576;28;20225;-68
2021/08/11 11:18:28;;;;;;;8.18;5.47;;;;;;;35.96;32.75;101275.25;5006847;28;20192;-68
2021/08/11 11:20:57;;;;;;;7.45;5.30;;;;;;;36.16;31.80;101274.03;5001418;28;20174;-68